sensor_id;sensor_type;location;lat;lon;timestamp;P1;durP1;ratioP1;P2;durP2;ratioP2
65037;SDS011;51605;47.040;15.294;2023-03-24T00:01:00;3.88;;;2.30;;
65037;SDS011;51605;47.040;15.294;2023-03-24T00:03:27;3.15;;;2.33;;
65037;SDS011;51605;47.040;15.294;2023-03-24T00:05:55;5.47;;;2.40;;
65037;SDS011;51605;47.040;15.294;2023-03-24T00:08:22;2.70;;;2.25;;
65037;SDS011;51605;47.040;15.294;2023-03-24T00:10:48;3.67;;;2.60;;
65037;SDS011;51605;47.040;15.294;2023-03-24T00:13:15;4.82;;;2.35;;
65037;SDS011;51605;47.040;15.294;2023-03-24T00:15:41;3.55;;;2.35;;
65037;SDS011;51605;47.040;15.294;2023-03-24T00:18:06;3.53;;;2.40;;
65037;SDS011;51605;47.040;15.294;2023-03-24T00:20:34;2.95;;;2.25;;
65037;SDS011;51605;47.040;15.294;2023-03-24T00:23:00;3.67;;;2.50;;
65037;SDS011;51605;47.040;15.294;2023-03-24T00:25:27;2.80;;;1.92;;
65037;SDS011;51605;47.040;15.294;2023-03-24T00:27:57;4.85;;;2.38;;
65037;SDS011;51605;47.040;15.294;2023-03-24T00:30:24;3.20;;;2.35;;
65037;SDS011;51605;47.040;15.294;2023-03-24T00:32:50;3.45;;;2.30;;
65037;SDS011;51605;47.040;15.294;2023-03-24T00:35:17;3.03;;;2.25;;
65037;SDS011;51605;47.040;15.294;2023-03-24T00:37:43;3.30;;;2.40;;
65037;SDS011;51605;47.040;15.294;2023-03-24T00:40:10;4.47;;;2.30;;
65037;SDS011;51605;47.040;15.294;2023-03-24T00:42:39;3.35;;;2.40;;
65037;SDS011;51605;47.040;15.294;2023-03-24T00:47:32;3.05;;;2.30;;
65037;SDS011;51605;47.040;15.294;2023-03-24T00:50:05;3.85;;;2.35;;
65037;SDS011;51605;47.040;15.294;2023-03-24T00:52:33;3.45;;;2.10;;
65037;SDS011;51605;47.040;15.294;2023-03-24T00:55:00;3.22;;;2.40;;
65037;SDS011;51605;47.040;15.294;2023-03-24T00:57:27;3.65;;;2.30;;
65037;SDS011;51605;47.040;15.294;2023-03-24T00:59:58;2.97;;;2.20;;
65037;SDS011;51605;47.040;15.294;2023-03-24T01:02:31;4.05;;;2.50;;
65037;SDS011;51605;47.040;15.294;2023-03-24T01:04:58;3.67;;;2.42;;
65037;SDS011;51605;47.040;15.294;2023-03-24T01:07:27;5.07;;;2.40;;
65037;SDS011;51605;47.040;15.294;2023-03-24T01:09:54;3.63;;;2.50;;
65037;SDS011;51605;47.040;15.294;2023-03-24T01:14:57;3.97;;;2.20;;
65037;SDS011;51605;47.040;15.294;2023-03-24T01:17:24;3.25;;;2.35;;
65037;SDS011;51605;47.040;15.294;2023-03-24T01:19:50;2.60;;;2.03;;
65037;SDS011;51605;47.040;15.294;2023-03-24T01:22:16;4.22;;;2.20;;
65037;SDS011;51605;47.040;15.294;2023-03-24T01:24:44;3.47;;;2.28;;
65037;SDS011;51605;47.040;15.294;2023-03-24T01:27:14;3.42;;;2.42;;
65037;SDS011;51605;47.040;15.294;2023-03-24T01:29:40;3.33;;;2.25;;
65037;SDS011;51605;47.040;15.294;2023-03-24T01:32:06;2.60;;;2.10;;
65037;SDS011;51605;47.040;15.294;2023-03-24T01:34:33;2.88;;;2.10;;
65037;SDS011;51605;47.040;15.294;2023-03-24T01:36:59;2.88;;;2.20;;
65037;SDS011;51605;47.040;15.294;2023-03-24T01:39:27;3.03;;;2.20;;
65037;SDS011;51605;47.040;15.294;2023-03-24T01:41:54;2.50;;;1.98;;
65037;SDS011;51605;47.040;15.294;2023-03-24T01:44:24;3.13;;;2.30;;
65037;SDS011;51605;47.040;15.294;2023-03-24T01:46:50;5.10;;;2.40;;
65037;SDS011;51605;47.040;15.294;2023-03-24T01:49:15;3.05;;;2.30;;
65037;SDS011;51605;47.040;15.294;2023-03-24T01:51:43;2.80;;;2.07;;
65037;SDS011;51605;47.040;15.294;2023-03-24T01:54:25;3.20;;;2.30;;
65037;SDS011;51605;47.040;15.294;2023-03-24T01:57:20;2.80;;;2.20;;
65037;SDS011;51605;47.040;15.294;2023-03-24T02:00:03;3.63;;;2.25;;
65037;SDS011;51605;47.040;15.294;2023-03-24T02:02:34;3.03;;;2.17;;
65037;SDS011;51605;47.040;15.294;2023-03-24T02:05:04;3.00;;;2.10;;
65037;SDS011;51605;47.040;15.294;2023-03-24T02:07:35;2.60;;;2.08;;
65037;SDS011;51605;47.040;15.294;2023-03-24T02:10:08;3.83;;;2.45;;
65037;SDS011;51605;47.040;15.294;2023-03-24T02:12:36;2.85;;;2.10;;
65037;SDS011;51605;47.040;15.294;2023-03-24T02:15:02;2.97;;;2.20;;
65037;SDS011;51605;47.040;15.294;2023-03-24T02:26:43;3.35;;;2.10;;
65037;SDS011;51605;47.040;15.294;2023-03-24T02:46:24;3.22;;;2.30;;
65037;SDS011;51605;47.040;15.294;2023-03-24T02:48:47;3.13;;;2.13;;
65037;SDS011;51605;47.040;15.294;2023-03-24T02:54:15;3.08;;;2.10;;
65037;SDS011;51605;47.040;15.294;2023-03-24T02:57:05;3.08;;;2.20;;
65037;SDS011;51605;47.040;15.294;2023-03-24T02:59:56;2.55;;;2.00;;
65037;SDS011;51605;47.040;15.294;2023-03-24T03:02:28;2.97;;;2.00;;
65037;SDS011;51605;47.040;15.294;2023-03-24T03:05:00;3.47;;;2.47;;
65037;SDS011;51605;47.040;15.294;2023-03-24T03:07:37;3.30;;;2.20;;
65037;SDS011;51605;47.040;15.294;2023-03-24T03:12:36;2.83;;;2.20;;
65037;SDS011;51605;47.040;15.294;2023-03-24T03:15:05;3.25;;;2.20;;
65037;SDS011;51605;47.040;15.294;2023-03-24T03:18:23;3.00;;;2.30;;
65037;SDS011;51605;47.040;15.294;2023-03-24T03:20:27;3.30;;;2.00;;
65037;SDS011;51605;47.040;15.294;2023-03-24T03:22:59;3.22;;;2.10;;
65037;SDS011;51605;47.040;15.294;2023-03-24T03:25:34;2.53;;;2.00;;
65037;SDS011;51605;47.040;15.294;2023-03-24T03:28:06;3.78;;;2.40;;
65037;SDS011;51605;47.040;15.294;2023-03-24T03:30:36;2.35;;;1.90;;
65037;SDS011;51605;47.040;15.294;2023-03-24T03:33:15;2.40;;;1.90;;
65037;SDS011;51605;47.040;15.294;2023-03-24T03:36:00;2.97;;;2.05;;
65037;SDS011;51605;47.040;15.294;2023-03-24T03:38:53;4.35;;;2.10;;
65037;SDS011;51605;47.040;15.294;2023-03-24T03:41:39;2.67;;;2.20;;
65037;SDS011;51605;47.040;15.294;2023-03-24T03:44:07;2.80;;;2.22;;
65037;SDS011;51605;47.040;15.294;2023-03-24T03:46:33;4.45;;;2.20;;
65037;SDS011;51605;47.040;15.294;2023-03-24T03:49:00;3.65;;;2.30;;
65037;SDS011;51605;47.040;15.294;2023-03-24T03:51:26;3.33;;;2.20;;
65037;SDS011;51605;47.040;15.294;2023-03-24T03:53:53;2.90;;;2.20;;
65037;SDS011;51605;47.040;15.294;2023-03-24T03:56:26;2.78;;;2.10;;
65037;SDS011;51605;47.040;15.294;2023-03-24T03:58:53;2.65;;;2.00;;
65037;SDS011;51605;47.040;15.294;2023-03-24T04:01:19;2.90;;;2.10;;
65037;SDS011;51605;47.040;15.294;2023-03-24T04:20:39;4.30;;;2.40;;
65037;SDS011;51605;47.040;15.294;2023-03-24T04:31:58;3.20;;;2.17;;
65037;SDS011;51605;47.040;15.294;2023-03-24T04:34:29;3.28;;;2.28;;
65037;SDS011;51605;47.040;15.294;2023-03-24T04:39:30;3.10;;;2.10;;
65037;SDS011;51605;47.040;15.294;2023-03-24T04:42:03;2.40;;;2.10;;
65037;SDS011;51605;47.040;15.294;2023-03-24T04:44:34;3.10;;;2.17;;
65037;SDS011;51605;47.040;15.294;2023-03-24T04:47:00;2.80;;;2.17;;
65037;SDS011;51605;47.040;15.294;2023-03-24T04:49:29;3.25;;;2.20;;
65037;SDS011;51605;47.040;15.294;2023-03-24T04:51:54;3.55;;;2.25;;
65037;SDS011;51605;47.040;15.294;2023-03-24T04:54:21;3.17;;;2.13;;
65037;SDS011;51605;47.040;15.294;2023-03-24T04:56:48;2.80;;;2.10;;
65037;SDS011;51605;47.040;15.294;2023-03-24T04:59:16;2.63;;;2.05;;
65037;SDS011;51605;47.040;15.294;2023-03-24T05:01:43;2.70;;;2.10;;
65037;SDS011;51605;47.040;15.294;2023-03-24T05:04:16;3.10;;;2.05;;
65037;SDS011;51605;47.040;15.294;2023-03-24T05:09:10;2.47;;;2.00;;
65037;SDS011;51605;47.040;15.294;2023-03-24T05:11:42;3.03;;;2.20;;
65037;SDS011;51605;47.040;15.294;2023-03-24T05:14:08;3.07;;;2.17;;
65037;SDS011;51605;47.040;15.294;2023-03-24T05:16:34;2.93;;;2.03;;
65037;SDS011;51605;47.040;15.294;2023-03-24T05:19:00;2.70;;;2.10;;
65037;SDS011;51605;47.040;15.294;2023-03-24T05:21:26;2.40;;;1.93;;
65037;SDS011;51605;47.040;15.294;2023-03-24T05:23:52;3.20;;;2.28;;
65037;SDS011;51605;47.040;15.294;2023-03-24T05:26:18;2.92;;;2.20;;
65037;SDS011;51605;47.040;15.294;2023-03-24T05:28:43;2.72;;;2.10;;
65037;SDS011;51605;47.040;15.294;2023-03-24T05:31:09;2.80;;;1.95;;
65037;SDS011;51605;47.040;15.294;2023-03-24T05:33:35;4.28;;;2.20;;
65037;SDS011;51605;47.040;15.294;2023-03-24T05:36:00;2.40;;;1.95;;
65037;SDS011;51605;47.040;15.294;2023-03-24T05:38:26;2.70;;;2.10;;
65037;SDS011;51605;47.040;15.294;2023-03-24T05:40:55;2.75;;;2.20;;
65037;SDS011;51605;47.040;15.294;2023-03-24T05:43:22;2.60;;;2.00;;
65037;SDS011;51605;47.040;15.294;2023-03-24T05:45:47;2.58;;;2.10;;
65037;SDS011;51605;47.040;15.294;2023-03-24T05:48:13;2.80;;;2.00;;
65037;SDS011;51605;47.040;15.294;2023-03-24T05:50:39;2.47;;;2.00;;
65037;SDS011;51605;47.040;15.294;2023-03-24T05:53:05;2.90;;;2.20;;
65037;SDS011;51605;47.040;15.294;2023-03-24T05:55:31;2.65;;;2.00;;
65037;SDS011;51605;47.040;15.294;2023-03-24T05:57:57;3.05;;;2.20;;
65037;SDS011;51605;47.040;15.294;2023-03-24T06:00:26;2.95;;;2.28;;
65037;SDS011;51605;47.040;15.294;2023-03-24T06:02:56;3.70;;;2.40;;
65037;SDS011;51605;47.040;15.294;2023-03-24T06:05:22;2.72;;;2.00;;
65037;SDS011;51605;47.040;15.294;2023-03-24T06:07:48;3.33;;;2.10;;
65037;SDS011;51605;47.040;15.294;2023-03-24T06:10:14;3.13;;;2.00;;
65037;SDS011;51605;47.040;15.294;2023-03-24T06:12:42;2.70;;;2.05;;
65037;SDS011;51605;47.040;15.294;2023-03-24T06:15:08;2.60;;;2.07;;
65037;SDS011;51605;47.040;15.294;2023-03-24T06:20:01;2.72;;;2.03;;
65037;SDS011;51605;47.040;15.294;2023-03-24T06:22:30;3.25;;;2.08;;
65037;SDS011;51605;47.040;15.294;2023-03-24T06:24:57;3.10;;;2.40;;
65037;SDS011;51605;47.040;15.294;2023-03-24T06:27:23;2.90;;;2.10;;
65037;SDS011;51605;47.040;15.294;2023-03-24T06:32:19;3.58;;;2.10;;
65037;SDS011;51605;47.040;15.294;2023-03-24T06:34:45;2.67;;;2.00;;
65037;SDS011;51605;47.040;15.294;2023-03-24T06:37:10;3.35;;;2.10;;
65037;SDS011;51605;47.040;15.294;2023-03-24T06:39:36;3.05;;;2.22;;
65037;SDS011;51605;47.040;15.294;2023-03-24T06:42:02;2.83;;;2.10;;
65037;SDS011;51605;47.040;15.294;2023-03-24T06:46:55;5.28;;;2.10;;
65037;SDS011;51605;47.040;15.294;2023-03-24T06:49:20;2.83;;;2.00;;
65037;SDS011;51605;47.040;15.294;2023-03-24T06:51:46;2.85;;;2.17;;
65037;SDS011;51605;47.040;15.294;2023-03-24T06:54:12;2.70;;;2.10;;
65037;SDS011;51605;47.040;15.294;2023-03-24T06:56:37;2.58;;;2.13;;
65037;SDS011;51605;47.040;15.294;2023-03-24T06:59:03;2.70;;;1.88;;
65037;SDS011;51605;47.040;15.294;2023-03-24T07:01:29;2.88;;;2.17;;
65037;SDS011;51605;47.040;15.294;2023-03-24T07:03:56;2.63;;;2.10;;
65037;SDS011;51605;47.040;15.294;2023-03-24T07:06:22;3.50;;;2.10;;
65037;SDS011;51605;47.040;15.294;2023-03-24T07:08:48;3.35;;;2.08;;
65037;SDS011;51605;47.040;15.294;2023-03-24T07:11:14;2.53;;;2.10;;
65037;SDS011;51605;47.040;15.294;2023-03-24T07:13:41;3.05;;;2.22;;
65037;SDS011;51605;47.040;15.294;2023-03-24T07:16:06;2.70;;;2.10;;
65037;SDS011;51605;47.040;15.294;2023-03-24T07:18:32;2.42;;;1.95;;
65037;SDS011;51605;47.040;15.294;2023-03-24T07:20:58;2.67;;;2.20;;
65037;SDS011;51605;47.040;15.294;2023-03-24T07:23:24;2.58;;;2.00;;
65037;SDS011;51605;47.040;15.294;2023-03-24T07:25:51;2.95;;;2.10;;
65037;SDS011;51605;47.040;15.294;2023-03-24T07:28:18;3.83;;;2.17;;
65037;SDS011;51605;47.040;15.294;2023-03-24T07:30:44;3.75;;;2.30;;
65037;SDS011;51605;47.040;15.294;2023-03-24T07:33:09;2.65;;;2.10;;
65037;SDS011;51605;47.040;15.294;2023-03-24T07:35:36;3.20;;;2.30;;
65037;SDS011;51605;47.040;15.294;2023-03-24T07:38:02;3.13;;;2.50;;
65037;SDS011;51605;47.040;15.294;2023-03-24T07:40:28;3.05;;;2.10;;
65037;SDS011;51605;47.040;15.294;2023-03-24T07:42:54;2.88;;;2.00;;
65037;SDS011;51605;47.040;15.294;2023-03-24T07:45:24;2.83;;;2.25;;
65037;SDS011;51605;47.040;15.294;2023-03-24T07:47:51;4.20;;;2.30;;
65037;SDS011;51605;47.040;15.294;2023-03-24T07:50:16;2.80;;;2.30;;
65037;SDS011;51605;47.040;15.294;2023-03-24T07:52:46;3.47;;;2.30;;
65037;SDS011;51605;47.040;15.294;2023-03-24T07:55:13;3.08;;;2.22;;
65037;SDS011;51605;47.040;15.294;2023-03-24T07:57:46;2.38;;;1.95;;
65037;SDS011;51605;47.040;15.294;2023-03-24T08:00:12;2.95;;;2.20;;
65037;SDS011;51605;47.040;15.294;2023-03-24T08:02:42;2.85;;;2.22;;
65037;SDS011;51605;47.040;15.294;2023-03-24T08:05:10;2.85;;;2.30;;
65037;SDS011;51605;47.040;15.294;2023-03-24T08:07:41;4.25;;;2.15;;
65037;SDS011;51605;47.040;15.294;2023-03-24T08:10:12;2.78;;;2.10;;
65037;SDS011;51605;47.040;15.294;2023-03-24T08:12:39;2.72;;;2.20;;
65037;SDS011;51605;47.040;15.294;2023-03-24T08:15:06;3.13;;;2.17;;
65037;SDS011;51605;47.040;15.294;2023-03-24T08:17:33;3.40;;;2.15;;
65037;SDS011;51605;47.040;15.294;2023-03-24T08:19:59;2.80;;;2.10;;
65037;SDS011;51605;47.040;15.294;2023-03-24T08:22:28;2.75;;;2.08;;
65037;SDS011;51605;47.040;15.294;2023-03-24T08:24:54;2.60;;;2.00;;
65037;SDS011;51605;47.040;15.294;2023-03-24T08:27:20;2.83;;;2.05;;
65037;SDS011;51605;47.040;15.294;2023-03-24T08:29:45;2.90;;;2.15;;
65037;SDS011;51605;47.040;15.294;2023-03-24T08:32:11;2.85;;;2.10;;
65037;SDS011;51605;47.040;15.294;2023-03-24T08:34:37;2.78;;;2.20;;
65037;SDS011;51605;47.040;15.294;2023-03-24T08:37:02;3.28;;;2.08;;
65037;SDS011;51605;47.040;15.294;2023-03-24T08:39:28;2.60;;;1.90;;
65037;SDS011;51605;47.040;15.294;2023-03-24T08:41:56;1.95;;;1.70;;
65037;SDS011;51605;47.040;15.294;2023-03-24T08:44:22;2.88;;;2.03;;
65037;SDS011;51605;47.040;15.294;2023-03-24T08:46:47;2.47;;;1.95;;
65037;SDS011;51605;47.040;15.294;2023-03-24T08:49:13;2.75;;;2.00;;
65037;SDS011;51605;47.040;15.294;2023-03-24T08:51:38;3.33;;;2.10;;
65037;SDS011;51605;47.040;15.294;2023-03-24T08:54:04;2.92;;;2.15;;
65037;SDS011;51605;47.040;15.294;2023-03-24T08:56:30;2.30;;;1.92;;
65037;SDS011;51605;47.040;15.294;2023-03-24T08:58:55;5.55;;;2.20;;
65037;SDS011;51605;47.040;15.294;2023-03-24T09:01:22;2.25;;;1.80;;
65037;SDS011;51605;47.040;15.294;2023-03-24T09:03:48;3.15;;;2.25;;
65037;SDS011;51605;47.040;15.294;2023-03-24T09:06:14;3.35;;;2.55;;
65037;SDS011;51605;47.040;15.294;2023-03-24T09:08:40;2.35;;;1.95;;
65037;SDS011;51605;47.040;15.294;2023-03-24T09:11:06;2.72;;;2.10;;
65037;SDS011;51605;47.040;15.294;2023-03-24T09:13:37;6.35;;;2.13;;
65037;SDS011;51605;47.040;15.294;2023-03-24T09:16:03;3.70;;;1.80;;
65037;SDS011;51605;47.040;15.294;2023-03-24T09:18:29;4.07;;;1.92;;
65037;SDS011;51605;47.040;15.294;2023-03-24T09:20:55;2.80;;;2.27;;
65037;SDS011;51605;47.040;15.294;2023-03-24T09:23:21;3.42;;;2.10;;
65037;SDS011;51605;47.040;15.294;2023-03-24T09:25:47;4.18;;;2.03;;
65037;SDS011;51605;47.040;15.294;2023-03-24T09:30:40;3.85;;;2.10;;
65037;SDS011;51605;47.040;15.294;2023-03-24T09:33:06;2.58;;;2.00;;
65037;SDS011;51605;47.040;15.294;2023-03-24T09:35:32;2.60;;;1.90;;
65037;SDS011;51605;47.040;15.294;2023-03-24T09:37:58;3.53;;;2.20;;
65037;SDS011;51605;47.040;15.294;2023-03-24T09:40:25;3.20;;;2.05;;
65037;SDS011;51605;47.040;15.294;2023-03-24T09:42:54;3.53;;;2.20;;
65037;SDS011;51605;47.040;15.294;2023-03-24T09:45:27;2.80;;;2.10;;
65037;SDS011;51605;47.040;15.294;2023-03-24T09:47:57;3.42;;;2.10;;
65037;SDS011;51605;47.040;15.294;2023-03-24T09:50:28;3.00;;;2.00;;
65037;SDS011;51605;47.040;15.294;2023-03-24T09:52:59;2.88;;;2.15;;
65037;SDS011;51605;47.040;15.294;2023-03-24T09:55:30;2.90;;;2.00;;
65037;SDS011;51605;47.040;15.294;2023-03-24T09:58:03;3.17;;;1.90;;
65037;SDS011;51605;47.040;15.294;2023-03-24T10:00:32;2.53;;;1.98;;
65037;SDS011;51605;47.040;15.294;2023-03-24T10:02:59;3.67;;;2.00;;
65037;SDS011;51605;47.040;15.294;2023-03-24T10:05:52;3.80;;;2.20;;
65037;SDS011;51605;47.040;15.294;2023-03-24T10:08:42;2.63;;;2.08;;
65037;SDS011;51605;47.040;15.294;2023-03-24T10:21:56;2.58;;;1.92;;
65037;SDS011;51605;47.040;15.294;2023-03-24T10:27:31;2.40;;;2.00;;
65037;SDS011;51605;47.040;15.294;2023-03-24T10:30:16;3.03;;;2.03;;
65037;SDS011;51605;47.040;15.294;2023-03-24T10:32:45;3.80;;;2.10;;
65037;SDS011;51605;47.040;15.294;2023-03-24T10:35:18;3.35;;;2.00;;
65037;SDS011;51605;47.040;15.294;2023-03-24T10:37:50;2.88;;;1.90;;
65037;SDS011;51605;47.040;15.294;2023-03-24T10:40:18;2.60;;;1.90;;
65037;SDS011;51605;47.040;15.294;2023-03-24T10:42:46;2.70;;;2.03;;
65037;SDS011;51605;47.040;15.294;2023-03-24T10:47:43;3.85;;;1.90;;
65037;SDS011;51605;47.040;15.294;2023-03-24T10:50:11;3.20;;;2.25;;
65037;SDS011;51605;47.040;15.294;2023-03-24T10:52:40;4.25;;;1.92;;
65037;SDS011;51605;47.040;15.294;2023-03-24T10:55:12;3.13;;;2.08;;
65037;SDS011;51605;47.040;15.294;2023-03-24T10:57:41;3.28;;;1.90;;
65037;SDS011;51605;47.040;15.294;2023-03-24T11:00:15;4.68;;;2.20;;
65037;SDS011;51605;47.040;15.294;2023-03-24T11:02:44;6.65;;;2.35;;
65037;SDS011;51605;47.040;15.294;2023-03-24T11:05:19;2.95;;;1.98;;
65037;SDS011;51605;47.040;15.294;2023-03-24T11:07:48;2.65;;;1.90;;
65037;SDS011;51605;47.040;15.294;2023-03-24T11:10:17;3.22;;;2.20;;
65037;SDS011;51605;47.040;15.294;2023-03-24T11:15:20;2.65;;;1.88;;
65037;SDS011;51605;47.040;15.294;2023-03-24T11:17:52;7.15;;;2.15;;
65037;SDS011;51605;47.040;15.294;2023-03-24T11:25:30;2.72;;;2.00;;
65037;SDS011;51605;47.040;15.294;2023-03-24T11:27:58;3.67;;;2.10;;
65037;SDS011;51605;47.040;15.294;2023-03-24T11:30:27;3.65;;;2.03;;
65037;SDS011;51605;47.040;15.294;2023-03-24T11:32:58;3.22;;;2.10;;
65037;SDS011;51605;47.040;15.294;2023-03-24T11:35:24;3.80;;;1.85;;
65037;SDS011;51605;47.040;15.294;2023-03-24T11:37:51;4.10;;;1.75;;
65037;SDS011;51605;47.040;15.294;2023-03-24T11:40:18;3.60;;;2.05;;
65037;SDS011;51605;47.040;15.294;2023-03-24T11:42:46;2.78;;;1.80;;
65037;SDS011;51605;47.040;15.294;2023-03-24T11:45:22;3.90;;;2.10;;
65037;SDS011;51605;47.040;15.294;2023-03-24T11:48:49;2.85;;;1.92;;
65037;SDS011;51605;47.040;15.294;2023-03-24T11:51:37;4.55;;;1.90;;
65037;SDS011;51605;47.040;15.294;2023-03-24T11:54:11;3.55;;;2.00;;
65037;SDS011;51605;47.040;15.294;2023-03-24T11:56:47;3.45;;;2.10;;
65037;SDS011;51605;47.040;15.294;2023-03-24T11:59:31;3.28;;;1.90;;
65037;SDS011;51605;47.040;15.294;2023-03-24T12:23:03;2.85;;;1.80;;
65037;SDS011;51605;47.040;15.294;2023-03-24T12:30:42;2.33;;;1.90;;
65037;SDS011;51605;47.040;15.294;2023-03-24T12:39:10;3.50;;;1.70;;
65037;SDS011;51605;47.040;15.294;2023-03-24T12:44:56;4.35;;;1.80;;
65037;SDS011;51605;47.040;15.294;2023-03-24T12:47:57;2.63;;;1.80;;
65037;SDS011;51605;47.040;15.294;2023-03-24T12:53:20;2.47;;;1.70;;
65037;SDS011;51605;47.040;15.294;2023-03-24T12:56:12;2.95;;;1.90;;
65037;SDS011;51605;47.040;15.294;2023-03-24T12:58:48;4.35;;;1.65;;
65037;SDS011;51605;47.040;15.294;2023-03-24T13:03:49;5.32;;;1.80;;
65037;SDS011;51605;47.040;15.294;2023-03-24T13:06:21;4.13;;;1.95;;
65037;SDS011;51605;47.040;15.294;2023-03-24T13:14:45;8.23;;;1.88;;
65037;SDS011;51605;47.040;15.294;2023-03-24T13:17:16;7.47;;;1.80;;
65037;SDS011;51605;47.040;15.294;2023-03-24T13:20:02;9.02;;;1.90;;
65037;SDS011;51605;47.040;15.294;2023-03-24T13:22:32;6.32;;;1.83;;
65037;SDS011;51605;47.040;15.294;2023-03-24T13:25:00;6.88;;;2.17;;
65037;SDS011;51605;47.040;15.294;2023-03-24T13:27:31;4.55;;;1.92;;
65037;SDS011;51605;47.040;15.294;2023-03-24T13:30:02;7.22;;;1.83;;
65037;SDS011;51605;47.040;15.294;2023-03-24T13:32:34;4.63;;;2.00;;
65037;SDS011;51605;47.040;15.294;2023-03-24T13:37:50;5.43;;;1.85;;
65037;SDS011;51605;47.040;15.294;2023-03-24T13:42:55;3.13;;;2.00;;
65037;SDS011;51605;47.040;15.294;2023-03-24T13:45:41;3.10;;;2.00;;
65037;SDS011;51605;47.040;15.294;2023-03-24T13:48:17;4.38;;;2.20;;
65037;SDS011;51605;47.040;15.294;2023-03-24T13:50:59;4.85;;;2.20;;
65037;SDS011;51605;47.040;15.294;2023-03-24T13:53:45;3.38;;;2.15;;
65037;SDS011;51605;47.040;15.294;2023-03-24T13:56:33;6.18;;;2.03;;
65037;SDS011;51605;47.040;15.294;2023-03-24T14:02:10;5.47;;;1.98;;
65037;SDS011;51605;47.040;15.294;2023-03-24T14:04:47;4.35;;;2.05;;
65037;SDS011;51605;47.040;15.294;2023-03-24T14:15:30;166.40;;;13.05;;
65037;SDS011;51605;47.040;15.294;2023-03-24T14:26:04;294.73;;;21.23;;
65037;SDS011;51605;47.040;15.294;2023-03-24T14:28:35;248.93;;;18.63;;
65037;SDS011;51605;47.040;15.294;2023-03-24T14:34:04;282.05;;;20.30;;
65037;SDS011;51605;47.040;15.294;2023-03-24T14:36:59;245.52;;;16.60;;
65037;SDS011;51605;47.040;15.294;2023-03-24T14:39:33;208.20;;;17.95;;
65037;SDS011;51605;47.040;15.294;2023-03-24T14:45:01;190.63;;;17.23;;
65037;SDS011;51605;47.040;15.294;2023-03-24T14:47:32;188.55;;;16.35;;
65037;SDS011;51605;47.040;15.294;2023-03-24T14:50:02;187.57;;;14.80;;
65037;SDS011;51605;47.040;15.294;2023-03-24T14:52:40;190.90;;;16.48;;
65037;SDS011;51605;47.040;15.294;2023-03-24T14:55:09;187.30;;;14.75;;
65037;SDS011;51605;47.040;15.294;2023-03-24T14:57:41;149.77;;;15.18;;
65037;SDS011;51605;47.040;15.294;2023-03-24T15:00:25;148.07;;;14.15;;
65037;SDS011;51605;47.040;15.294;2023-03-24T15:06:16;154.65;;;13.27;;
65037;SDS011;51605;47.040;15.294;2023-03-24T15:08:50;136.85;;;13.43;;
65037;SDS011;51605;47.040;15.294;2023-03-24T15:11:23;137.35;;;12.52;;
65037;SDS011;51605;47.040;15.294;2023-03-24T15:13:53;134.32;;;14.68;;
65037;SDS011;51605;47.040;15.294;2023-03-24T15:21:24;120.38;;;12.82;;
65037;SDS011;51605;47.040;15.294;2023-03-24T15:23:52;106.35;;;12.35;;
65037;SDS011;51605;47.040;15.294;2023-03-24T15:26:20;96.43;;;10.27;;
65037;SDS011;51605;47.040;15.294;2023-03-24T15:28:54;101.30;;;11.70;;
65037;SDS011;51605;47.040;15.294;2023-03-24T15:31:24;104.00;;;12.52;;
65037;SDS011;51605;47.040;15.294;2023-03-24T15:34:01;98.07;;;10.88;;
65037;SDS011;51605;47.040;15.294;2023-03-24T15:36:32;104.50;;;12.40;;
65037;SDS011;51605;47.040;15.294;2023-03-24T15:39:02;92.07;;;13.38;;
65037;SDS011;51605;47.040;15.294;2023-03-24T15:41:42;95.20;;;10.60;;
65037;SDS011;51605;47.040;15.294;2023-03-24T15:44:08;83.63;;;10.45;;
65037;SDS011;51605;47.040;15.294;2023-03-24T15:46:33;82.68;;;10.73;;
65037;SDS011;51605;47.040;15.294;2023-03-24T15:48:59;79.70;;;9.35;;
65037;SDS011;51605;47.040;15.294;2023-03-24T15:54:30;85.70;;;10.13;;
65037;SDS011;51605;47.040;15.294;2023-03-24T15:57:15;77.57;;;8.57;;
65037;SDS011;51605;47.040;15.294;2023-03-24T16:05:03;66.55;;;9.02;;
65037;SDS011;51605;47.040;15.294;2023-03-24T16:07:35;69.18;;;8.48;;
65037;SDS011;51605;47.040;15.294;2023-03-24T16:10:03;65.53;;;9.57;;
65037;SDS011;51605;47.040;15.294;2023-03-24T16:12:35;58.42;;;8.88;;
65037;SDS011;51605;47.040;15.294;2023-03-24T16:15:02;56.47;;;8.55;;
65037;SDS011;51605;47.040;15.294;2023-03-24T16:17:33;56.20;;;8.77;;
65037;SDS011;51605;47.040;15.294;2023-03-24T16:19:58;51.28;;;8.02;;
65037;SDS011;51605;47.040;15.294;2023-03-24T16:22:24;62.85;;;9.30;;
65037;SDS011;51605;47.040;15.294;2023-03-24T16:24:49;52.50;;;7.95;;
65037;SDS011;51605;47.040;15.294;2023-03-24T16:27:15;53.92;;;8.10;;
65037;SDS011;51605;47.040;15.294;2023-03-24T16:29:41;47.28;;;7.18;;
65037;SDS011;51605;47.040;15.294;2023-03-24T16:32:07;48.90;;;7.50;;
65037;SDS011;51605;47.040;15.294;2023-03-24T16:34:34;50.33;;;7.10;;
65037;SDS011;51605;47.040;15.294;2023-03-24T16:37:00;54.22;;;7.72;;
65037;SDS011;51605;47.040;15.294;2023-03-24T16:39:28;43.90;;;7.55;;
65037;SDS011;51605;47.040;15.294;2023-03-24T16:41:55;50.95;;;7.78;;
65037;SDS011;51605;47.040;15.294;2023-03-24T16:44:21;53.80;;;7.38;;
65037;SDS011;51605;47.040;15.294;2023-03-24T16:46:47;52.80;;;7.55;;
65037;SDS011;51605;47.040;15.294;2023-03-24T16:49:16;47.58;;;6.82;;
65037;SDS011;51605;47.040;15.294;2023-03-24T16:51:43;60.25;;;7.80;;
65037;SDS011;51605;47.040;15.294;2023-03-24T16:56:36;54.50;;;7.07;;
65037;SDS011;51605;47.040;15.294;2023-03-24T16:59:03;50.35;;;6.20;;
65037;SDS011;51605;47.040;15.294;2023-03-24T17:01:30;40.58;;;6.57;;
65037;SDS011;51605;47.040;15.294;2023-03-24T17:03:59;43.75;;;7.38;;
65037;SDS011;51605;47.040;15.294;2023-03-24T17:06:34;36.80;;;6.18;;
65037;SDS011;51605;47.040;15.294;2023-03-24T17:09:00;43.38;;;6.88;;
65037;SDS011;51605;47.040;15.294;2023-03-24T17:11:34;34.22;;;6.10;;
65037;SDS011;51605;47.040;15.294;2023-03-24T17:14:01;41.10;;;6.63;;
65037;SDS011;51605;47.040;15.294;2023-03-24T17:16:33;42.72;;;6.40;;
65037;SDS011;51605;47.040;15.294;2023-03-24T17:19:04;34.17;;;6.30;;
65037;SDS011;51605;47.040;15.294;2023-03-24T17:21:31;36.65;;;7.25;;
65037;SDS011;51605;47.040;15.294;2023-03-24T17:24:20;30.63;;;5.72;;
65037;SDS011;51605;47.040;15.294;2023-03-24T17:29:13;33.92;;;6.03;;
65037;SDS011;51605;47.040;15.294;2023-03-24T17:31:39;34.53;;;5.95;;
65037;SDS011;51605;47.040;15.294;2023-03-24T17:34:08;33.75;;;6.78;;
65037;SDS011;51605;47.040;15.294;2023-03-24T17:36:38;37.83;;;5.40;;
65037;SDS011;51605;47.040;15.294;2023-03-24T17:39:04;27.23;;;5.60;;
65037;SDS011;51605;47.040;15.294;2023-03-24T17:41:30;39.85;;;6.60;;
65037;SDS011;51605;47.040;15.294;2023-03-24T17:43:56;38.85;;;5.72;;
65037;SDS011;51605;47.040;15.294;2023-03-24T17:46:21;37.00;;;5.50;;
65037;SDS011;51605;47.040;15.294;2023-03-24T17:48:48;33.45;;;5.43;;
65037;SDS011;51605;47.040;15.294;2023-03-24T17:51:13;31.67;;;5.78;;
65037;SDS011;51605;47.040;15.294;2023-03-24T17:53:39;29.35;;;5.78;;
65037;SDS011;51605;47.040;15.294;2023-03-24T17:56:05;32.60;;;5.57;;
65037;SDS011;51605;47.040;15.294;2023-03-24T17:58:32;27.08;;;5.47;;
65037;SDS011;51605;47.040;15.294;2023-03-24T18:01:00;22.67;;;4.35;;
65037;SDS011;51605;47.040;15.294;2023-03-24T18:03:27;20.40;;;4.93;;
65037;SDS011;51605;47.040;15.294;2023-03-24T18:05:54;28.70;;;5.05;;